createdAt,value
2022-10-11T00:00:42.796Z,102638.59
2022-10-11T00:03:09.514Z,102637.31
2022-10-11T00:05:36.133Z,102641.19
2022-10-11T00:08:05.423Z,102648.31
2022-10-11T00:10:33.491Z,102641.19
2022-10-11T00:13:00.336Z,102639.91
2022-10-11T00:15:26.790Z,102645.03
2022-10-11T00:17:53.167Z,102639.72
2022-10-11T00:20:19.698Z,102643.38
2022-10-11T00:22:46.195Z,102646.44
2022-10-11T00:25:13.168Z,102641.50
2022-10-11T00:27:39.778Z,102647.81
2022-10-11T00:30:07.128Z,102653.13
2022-10-11T00:32:35.455Z,102650.47
2022-10-11T00:35:06.159Z,102652.13
2022-10-11T00:37:34.113Z,102654.78
2022-10-11T00:40:01.596Z,102650.69
2022-10-11T00:42:28.004Z,102663.13
2022-10-11T00:45:40.236Z,102661.69
2022-10-11T00:48:17.106Z,102662.91
2022-10-11T00:50:43.552Z,102665.56
2022-10-11T00:53:11.983Z,102665.91
2022-10-11T00:55:51.716Z,102668.38
2022-10-11T00:58:18.883Z,102666.94
2022-10-11T01:00:45.399Z,102668.75
2022-10-11T01:03:11.888Z,102675.91
2022-10-11T01:05:39.768Z,102671.81
2022-10-11T01:08:08.194Z,102688.94
2022-10-11T01:10:35.205Z,102687.69
2022-10-11T01:13:10.727Z,102687.19
2022-10-11T01:15:53.048Z,102685.56
2022-10-11T01:18:28.456Z,102696.19
2022-10-11T01:21:07.133Z,102696.19
2022-10-11T01:23:56.692Z,102688.22
2022-10-11T01:26:57.978Z,102696.50
2022-10-11T01:29:52.253Z,102691.47
2022-10-11T01:32:21.654Z,102695.13
2022-10-11T01:34:55.789Z,102697.56
2022-10-11T01:37:41.056Z,102702.91
2022-10-11T01:40:13.483Z,102707.41
2022-10-11T01:42:41.580Z,102699.63
2022-10-11T01:45:12.543Z,102695.94
2022-10-11T01:47:39.038Z,102704.94
2022-10-11T01:50:07.895Z,102703.28
2022-10-11T01:52:40.612Z,102699.97
2022-10-11T01:55:30.644Z,102703.66
2022-10-11T01:58:18.225Z,102703.66
2022-10-11T02:01:20.178Z,102703.66
2022-10-11T02:03:57.341Z,102703.66
2022-10-11T02:06:35.432Z,102707.13
2022-10-11T02:09:22.141Z,102708.50
2022-10-11T02:11:48.547Z,102711.06
2022-10-11T02:14:24.222Z,102710.44
2022-10-11T02:16:57.753Z,102705.75
2022-10-11T02:19:31.444Z,102706.41
2022-10-11T02:22:03.405Z,102709.69
2022-10-11T02:24:36.100Z,102692.09
2022-10-11T02:27:05.119Z,102696.94
2022-10-11T02:29:35.948Z,102700.16
2022-10-11T02:32:02.743Z,102702.16
2022-10-11T02:34:37.661Z,102705.19
2022-10-11T02:37:06.900Z,102711.97
2022-10-11T02:39:47.301Z,102715.66
2022-10-11T02:42:21.289Z,102719.94
2022-10-11T02:44:59.683Z,102720.97
2022-10-11T02:47:29.327Z,102720.31
2022-10-11T02:49:55.782Z,102722.31
2022-10-11T02:52:22.092Z,102721.03
2022-10-11T02:54:48.393Z,102721.56
2022-10-11T02:57:14.701Z,102726.78
2022-10-11T02:59:41.009Z,102718.81
2022-10-11T03:02:07.551Z,102721.66
2022-10-11T03:04:33.986Z,102724.50
2022-10-11T03:07:00.494Z,102727.97
2022-10-11T03:09:26.851Z,102736.28
2022-10-11T03:11:53.222Z,102727.31
2022-10-11T03:14:19.534Z,102730.63
2022-10-11T03:16:45.870Z,102726.97
2022-10-11T03:19:14.656Z,102729.44
2022-10-11T03:21:44.680Z,102732.09
2022-10-11T03:24:11.013Z,102729.44
2022-10-11T03:26:37.378Z,102739.91
2022-10-11T03:29:03.680Z,102730.94
2022-10-11T03:31:29.996Z,102726.72
2022-10-11T03:33:56.308Z,102733.03
2022-10-11T03:36:22.714Z,102733.38
2022-10-11T03:38:49.073Z,102740.34
2022-10-11T03:41:15.377Z,102740.34
2022-10-11T03:43:41.693Z,102739.50
2022-10-11T03:46:08.639Z,102753.44
2022-10-11T03:48:35.260Z,102744.66
2022-10-11T03:51:01.595Z,102752.78
2022-10-11T03:53:27.920Z,102747.22
2022-10-11T03:55:55.636Z,102757.84
2022-10-11T03:58:22.145Z,102759.50
2022-10-11T04:00:49.318Z,102756.84
2022-10-11T04:03:15.791Z,102761.31
2022-10-11T04:05:42.131Z,102764.81
2022-10-11T04:08:11.914Z,102764.81
2022-10-11T04:10:39.349Z,102761.50
2022-10-11T04:13:05.893Z,102764.16
2022-10-11T04:15:32.303Z,102759.84
2022-10-11T04:17:58.641Z,102760.03
2022-10-11T04:20:24.994Z,102754.72
2022-10-11T04:22:51.316Z,102766.16
2022-10-11T04:25:17.804Z,102769.00
2022-10-11T04:27:44.148Z,102778.00
2022-10-11T04:30:11.206Z,102776.91
2022-10-11T04:32:37.513Z,102778.44
2022-10-11T04:35:04.920Z,102779.44
2022-10-11T04:37:31.360Z,102781.94
2022-10-11T04:39:57.665Z,102781.94
2022-10-11T04:42:24.006Z,102782.94
2022-10-11T04:44:50.316Z,102795.22
2022-10-11T04:47:16.803Z,102784.41
2022-10-11T04:49:43.120Z,102786.88
2022-10-11T04:52:09.503Z,102784.88
2022-10-11T04:54:35.867Z,102797.13
2022-10-11T04:57:02.185Z,102791.66
2022-10-11T04:59:28.483Z,102792.13
2022-10-11T05:01:54.866Z,102799.75
2022-10-11T05:04:21.220Z,102792.25
2022-10-11T05:06:47.532Z,102799.38
2022-10-11T05:09:13.855Z,102802.22
2022-10-11T05:11:40.183Z,102794.06
2022-10-11T05:14:06.501Z,102795.56
2022-10-11T05:16:32.817Z,102795.38
2022-10-11T05:18:59.124Z,102795.81
2022-10-11T05:21:27.979Z,102800.59
2022-10-11T05:23:58.690Z,102804.91
2022-10-11T05:26:27.670Z,102806.56
2022-10-11T05:28:55.135Z,102809.06
2022-10-11T05:31:21.560Z,102809.75
2022-10-11T05:33:48.227Z,102810.09
2022-10-11T05:36:15.128Z,102813.75
2022-10-11T05:38:41.574Z,102809.28
2022-10-11T05:41:09.240Z,102813.75
2022-10-11T05:43:36.096Z,102813.59
2022-10-11T05:46:03.114Z,102816.91
2022-10-11T05:48:29.756Z,102815.72
2022-10-11T05:51:02.827Z,102816.53
2022-10-11T05:53:29.669Z,102824.34
2022-10-11T05:55:56.580Z,102826.16
2022-10-11T05:58:23.123Z,102827.00
2022-10-11T06:00:49.467Z,102827.00
2022-10-11T06:03:16.113Z,102830.28
2022-10-11T06:05:42.588Z,102828.81
2022-10-11T06:08:11.024Z,102832.94
2022-10-11T06:10:38.308Z,102841.72
2022-10-11T06:13:05.115Z,102839.72
2022-10-11T06:15:31.500Z,102834.41
2022-10-11T06:17:59.138Z,102839.72
2022-10-11T06:20:26.203Z,102836.25
2022-10-11T06:22:52.556Z,102844.03
2022-10-11T06:25:18.864Z,102841.38
2022-10-11T06:27:45.365Z,102847.00
2022-10-11T06:30:12.005Z,102850.13
2022-10-11T06:32:38.320Z,102852.41
2022-10-11T06:35:05.978Z,102855.69
2022-10-11T06:37:32.309Z,102853.88
2022-10-11T06:39:58.720Z,102860.50
2022-10-11T06:42:25.117Z,102871.19
2022-10-11T06:44:51.599Z,102867.66
2022-10-11T06:47:17.951Z,102866.59
2022-10-11T06:49:44.257Z,102872.47
2022-10-11T06:52:10.580Z,102872.38
2022-10-11T06:54:39.155Z,102866.69
2022-10-11T06:57:08.910Z,102873.31
2022-10-11T06:59:35.223Z,102876.41
2022-10-11T07:02:01.531Z,102881.03
2022-10-11T07:04:28.243Z,102882.94
2022-10-11T07:06:54.545Z,102889.72
2022-10-11T07:09:20.857Z,102889.00
2022-10-11T07:11:48.799Z,102884.78
2022-10-11T07:14:15.125Z,102894.03
2022-10-11T07:16:41.446Z,102889.34
2022-10-11T07:19:07.921Z,102884.31
2022-10-11T07:21:35.365Z,102897.03
2022-10-11T07:24:02.239Z,102898.34
2022-10-11T07:26:33.811Z,102898.22
2022-10-11T07:29:04.695Z,102895.47
2022-10-11T07:31:31.638Z,102900.69
2022-10-11T07:33:57.962Z,102898.84
2022-10-11T07:36:25.738Z,102903.03
2022-10-11T07:38:52.321Z,102901.06
2022-10-11T07:41:19.412Z,102902.44
2022-10-11T07:43:47.780Z,102905.81
2022-10-11T07:46:14.214Z,102897.66
2022-10-11T07:48:41.363Z,102902.69
2022-10-11T07:51:09.332Z,102903.16
2022-10-11T07:53:40.584Z,102914.53
2022-10-11T07:56:08.664Z,102906.59
2022-10-11T07:58:35.596Z,102916.47
2022-10-11T08:01:01.960Z,102917.94
2022-10-11T08:03:28.993Z,102916.72
2022-10-11T08:06:00.088Z,102920.66
2022-10-11T08:08:26.421Z,102915.59
2022-10-11T08:10:52.745Z,102928.44
2022-10-11T08:13:19.303Z,102924.44
2022-10-11T08:15:45.633Z,102929.03
2022-10-11T08:18:11.972Z,102930.41
2022-10-11T08:20:39.635Z,102935.69
2022-10-11T08:23:06.675Z,102935.28
2022-10-11T08:25:41.711Z,102935.50
2022-10-11T08:28:09.574Z,102940.22
2022-10-11T08:30:36.347Z,102933.16
2022-10-11T08:33:07.590Z,102940.94
2022-10-11T08:35:36.108Z,102938.63
2022-10-11T08:38:02.751Z,102937.50
2022-10-11T08:40:34.258Z,102938.34
2022-10-11T08:43:08.227Z,102945.44
2022-10-11T08:45:46.631Z,102952.44
2022-10-11T08:48:20.499Z,102951.50
2022-10-11T08:50:50.080Z,102945.13
2022-10-11T08:53:26.576Z,102953.53
2022-10-11T08:55:54.796Z,102944.66
2022-10-11T08:58:28.739Z,102951.03
2022-10-11T09:00:56.855Z,102957.16
2022-10-11T09:03:36.508Z,102950.91
2022-10-11T09:06:31.383Z,102949.91
2022-10-11T09:09:21.199Z,102947.81
2022-10-11T09:12:21.524Z,102943.66
2022-10-11T09:15:09.933Z,102943.31
2022-10-11T09:17:54.576Z,102948.22
2022-10-11T09:20:35.674Z,102945.25
2022-10-11T09:23:30.540Z,102951.97
2022-10-11T09:26:25.489Z,102948.53
2022-10-11T09:29:22.691Z,102947.72
2022-10-11T09:31:54.689Z,102953.94
2022-10-11T09:34:24.901Z,102956.25
2022-10-11T09:37:14.200Z,102952.72
2022-10-11T09:39:47.799Z,102953.78
2022-10-11T09:42:14.156Z,102958.81
2022-10-11T09:44:49.425Z,102957.50
2022-10-11T09:47:30.071Z,102959.34
2022-10-11T09:50:20.007Z,102962.28
2022-10-11T09:52:55.429Z,102960.81
2022-10-11T09:55:46.489Z,102956.97
2022-10-11T09:58:32.918Z,102954.16
2022-10-11T10:01:08.223Z,102962.22
2022-10-11T10:03:44.318Z,102958.94
2022-10-11T10:06:21.784Z,102953.53
2022-10-11T10:08:48.089Z,102954.16
2022-10-11T10:11:15.201Z,102957.41
2022-10-11T10:13:51.983Z,102954.63
2022-10-11T10:16:30.156Z,102953.78
2022-10-11T10:19:01.340Z,102948.78
2022-10-11T10:21:43.896Z,102948.09
2022-10-11T10:24:30.236Z,102961.06
2022-10-11T10:27:10.723Z,102955.16
2022-10-11T10:29:37.692Z,102953.00
2022-10-11T10:32:20.857Z,102949.22
2022-10-11T10:35:13.280Z,102949.06
2022-10-11T10:37:49.202Z,102940.75
2022-10-11T10:40:25.256Z,102942.91
2022-10-11T10:42:52.439Z,102941.38
2022-10-11T10:45:21.887Z,102948.19
2022-10-11T10:48:03.717Z,102943.56
2022-10-11T10:50:43.944Z,102936.03
2022-10-11T10:53:23.936Z,102939.81
2022-10-11T10:56:15.202Z,102937.41
2022-10-11T10:58:53.541Z,102937.13
2022-10-11T11:01:27.353Z,102935.72
2022-10-11T11:04:05.214Z,102936.47
2022-10-11T11:06:41.368Z,102944.00
2022-10-11T11:09:16.969Z,102930.69
2022-10-11T11:12:13.854Z,102932.56
2022-10-11T11:14:44.890Z,102924.38
2022-10-11T11:17:32.426Z,102931.81
2022-10-11T11:20:29.563Z,102920.69
2022-10-11T11:23:08.057Z,102924.00
2022-10-11T11:25:52.266Z,102922.44
2022-10-11T11:28:57.642Z,102924.06
2022-10-11T11:31:39.748Z,102923.81
2022-10-11T11:34:08.831Z,102916.78
2022-10-11T11:36:46.070Z,102916.50
2022-10-11T11:39:19.139Z,102914.25
2022-10-11T11:41:54.720Z,102911.28
2022-10-11T11:44:28.137Z,102914.25
2022-10-11T11:47:06.559Z,102914.78
2022-10-11T11:49:39.240Z,102916.66
2022-10-11T11:52:12.444Z,102914.44
2022-10-11T11:55:04.293Z,102915.25
2022-10-11T11:57:39.710Z,102906.03
2022-10-11T12:00:15.358Z,102904.91
2022-10-11T12:03:19.543Z,102908.13
2022-10-11T12:06:13.707Z,102899.47
2022-10-11T12:08:43.393Z,102903.59
2022-10-11T12:11:20.619Z,102895.06
2022-10-11T12:13:49.337Z,102890.84
2022-10-11T12:16:17.329Z,102886.16
2022-10-11T12:19:03.303Z,102882.97
2022-10-11T12:21:34.083Z,102877.09
2022-10-11T12:24:49.734Z,102880.53
2022-10-11T12:27:36.101Z,102879.75
2022-10-11T12:30:02.811Z,102865.53
2022-10-11T12:32:34.991Z,102866.81
2022-10-11T12:35:33.246Z,102861.94
2022-10-11T12:38:25.137Z,102860.13
2022-10-11T12:40:57.041Z,102855.28
2022-10-11T12:43:44.255Z,102862.50
2022-10-11T12:46:28.941Z,102854.47
2022-10-11T12:49:16.579Z,102854.00
2022-10-11T12:51:57.439Z,102857.31
2022-10-11T12:54:39.029Z,102857.22
2022-10-11T12:57:11.901Z,102863.59
2022-10-11T12:59:43.977Z,102852.59
2022-10-11T13:02:29.028Z,102841.66
2022-10-11T13:05:08.290Z,102849.91
2022-10-11T13:07:35.693Z,102846.28
2022-10-11T13:10:04.363Z,102846.75
2022-10-11T13:12:36.883Z,102841.66
2022-10-11T13:15:08.351Z,102835.31
2022-10-11T13:17:38.770Z,102832.06
2022-10-11T13:20:17.444Z,102835.47
2022-10-11T13:22:47.371Z,102843.13
2022-10-11T13:25:20.195Z,102840.31
2022-10-11T13:27:49.399Z,102843.53
2022-10-11T13:30:31.612Z,102842.03
2022-10-11T13:32:59.295Z,102841.69
2022-10-11T13:35:29.505Z,102843.94
2022-10-11T13:37:56.038Z,102837.09
2022-10-11T13:40:23.598Z,102834.41
2022-10-11T13:42:52.131Z,102831.19
2022-10-11T13:45:22.485Z,102837.91
2022-10-11T13:47:50.360Z,102837.91
2022-10-11T13:50:23.886Z,102832.53
2022-10-11T13:52:56.322Z,102831.78
2022-10-11T13:55:26.560Z,102834.03
2022-10-11T13:57:54.447Z,102829.97
2022-10-11T14:00:24.710Z,102834.09
2022-10-11T14:02:56.135Z,102830.03
2022-10-11T14:05:29.316Z,102831.69
2022-10-11T14:08:01.837Z,102828.94
2022-10-11T14:10:29.419Z,102826.03
2022-10-11T14:13:21.904Z,102821.00
2022-10-11T14:16:02.644Z,102825.19
2022-10-11T14:18:51.743Z,102819.31
2022-10-11T14:21:26.275Z,102815.94
2022-10-11T14:24:12.443Z,102815.72
2022-10-11T14:26:42.455Z,102818.78
2022-10-11T14:29:16.590Z,102814.38
2022-10-11T14:31:43.131Z,102813.09
2022-10-11T14:34:18.222Z,102810.28
2022-10-11T14:36:44.581Z,102806.03
2022-10-11T14:39:16.146Z,102813.56
2022-10-11T14:41:42.735Z,102807.47
2022-10-11T14:44:09.055Z,102800.59
2022-10-11T14:46:35.859Z,102809.16
2022-10-11T14:49:02.265Z,102806.16
2022-10-11T14:51:34.258Z,102804.19
2022-10-11T14:54:00.622Z,102818.63
2022-10-11T14:56:26.957Z,102810.09
2022-10-11T14:58:53.361Z,102809.94
2022-10-11T15:01:19.760Z,102809.22
2022-10-11T15:03:46.116Z,102801.97
2022-10-11T15:06:19.349Z,102813.03
2022-10-11T15:08:45.800Z,102807.06
2022-10-11T15:11:15.280Z,102808.91
2022-10-11T15:13:41.611Z,102812.03
2022-10-11T15:16:08.705Z,102804.28
2022-10-11T15:18:35.272Z,102808.19
2022-10-11T15:21:01.816Z,102803.94
2022-10-11T15:23:28.336Z,102808.34
2022-10-11T15:25:54.767Z,102808.38
2022-10-11T15:28:28.700Z,102807.88
2022-10-11T15:30:55.723Z,102806.31
2022-10-11T15:33:22.945Z,102798.16
2022-10-11T15:35:49.324Z,102800.34
2022-10-11T15:38:21.699Z,102802.25
2022-10-11T15:40:49.071Z,102797.59
2022-10-11T15:43:18.743Z,102799.78
2022-10-11T15:45:47.130Z,102801.94
2022-10-11T15:48:15.882Z,102787.84
2022-10-11T15:50:42.348Z,102791.63
2022-10-11T15:53:18.899Z,102798.09
2022-10-11T15:55:49.608Z,102793.25
2022-10-11T15:58:17.423Z,102786.41
2022-10-11T16:00:45.895Z,102791.56
2022-10-11T16:03:14.327Z,102790.19
2022-10-11T16:05:41.825Z,102780.66
2022-10-11T16:08:09.180Z,102778.69
2022-10-11T16:10:36.586Z,102790.59
2022-10-11T16:13:03.085Z,102777.25
2022-10-11T16:15:29.672Z,102774.50
2022-10-11T16:17:55.988Z,102779.84
2022-10-11T16:20:24.540Z,102783.78
2022-10-11T16:22:53.203Z,102782.97
2022-10-11T16:25:20.792Z,102791.06
2022-10-11T16:27:47.300Z,102781.50
2022-10-11T16:30:14.878Z,102786.00
2022-10-11T16:32:41.671Z,102783.50
2022-10-11T16:35:08.864Z,102777.06
2022-10-11T16:37:36.198Z,102782.06
2022-10-11T16:40:02.548Z,102785.88
2022-10-11T16:42:28.871Z,102789.94
2022-10-11T16:44:55.206Z,102798.06
2022-10-11T16:47:21.512Z,102794.06
2022-10-11T16:49:47.844Z,102806.50
2022-10-11T16:52:14.252Z,102804.47
2022-10-11T16:54:47.336Z,102809.94
2022-10-11T16:57:15.925Z,102803.81
2022-10-11T16:59:42.447Z,102807.91
2022-10-11T17:02:18.578Z,102798.34
2022-10-11T17:04:45.233Z,102797.38
2022-10-11T17:07:12.942Z,102795.88
2022-10-11T17:09:43.972Z,102801.31
2022-10-11T17:12:13.559Z,102806.13
2022-10-11T17:14:41.360Z,102800.75
2022-10-11T17:17:09.619Z,102806.38
2022-10-11T17:19:41.363Z,102797.97
2022-10-11T17:22:12.161Z,102801.94
2022-10-11T17:24:38.926Z,102806.09
2022-10-11T17:27:06.357Z,102804.81
2022-10-11T17:29:33.208Z,102806.97
2022-10-11T17:31:59.929Z,102804.78
2022-10-11T17:34:26.360Z,102809.13
2022-10-11T17:36:52.739Z,102808.13
2022-10-11T17:39:22.232Z,102810.34
2022-10-11T17:41:49.748Z,102810.22
2022-10-11T17:44:17.956Z,102808.25
2022-10-11T17:46:44.770Z,102807.78
2022-10-11T17:49:11.694Z,102802.78
2022-10-11T17:51:39.695Z,102800.66
2022-10-11T17:54:06.356Z,102803.94
2022-10-11T17:56:37.578Z,102802.31
2022-10-11T17:59:04.834Z,102808.38
2022-10-11T18:01:31.288Z,102807.44
2022-10-11T18:04:00.497Z,102809.44
2022-10-11T18:06:29.128Z,102809.53
2022-10-11T18:08:57.149Z,102808.00
2022-10-11T18:11:23.620Z,102806.13
2022-10-11T18:13:51.707Z,102799.22
2022-10-11T18:16:20.365Z,102803.03
2022-10-11T18:18:46.977Z,102803.13
2022-10-11T18:21:13.697Z,102799.03
2022-10-11T18:23:40.240Z,102806.34
2022-10-11T18:26:18.704Z,102805.41
2022-10-11T18:28:45.515Z,102809.38
2022-10-11T18:31:18.103Z,102801.66
2022-10-11T18:33:46.273Z,102800.00
2022-10-11T18:36:14.847Z,102810.63
2022-10-11T18:38:47.012Z,102810.47
2022-10-11T18:41:18.365Z,102808.47
2022-10-11T18:43:53.627Z,102805.78
2022-10-11T18:46:21.151Z,102809.50
2022-10-11T18:48:50.011Z,102804.63
2022-10-11T18:51:22.265Z,102805.06
2022-10-11T18:53:49.332Z,102803.06
2022-10-11T18:56:17.657Z,102797.25
2022-10-11T18:58:45.175Z,102803.75
2022-10-11T19:01:21.095Z,102799.50
2022-10-11T19:03:50.294Z,102798.38
2022-10-11T19:06:18.139Z,102799.47
2022-10-11T19:08:50.028Z,102793.75
2022-10-11T19:11:17.662Z,102799.78
2022-10-11T19:13:44.104Z,102802.09
2022-10-11T19:16:16.358Z,102800.53
2022-10-11T19:18:44.573Z,102801.19
2022-10-11T19:21:12.716Z,102797.91
2022-10-11T19:23:42.218Z,102797.72
2022-10-11T19:26:20.202Z,102794.13
2022-10-11T19:28:47.880Z,102796.09
2022-10-11T19:31:16.946Z,102793.09
2022-10-11T19:33:45.026Z,102794.38
2022-10-11T19:36:13.820Z,102798.13
2022-10-11T19:38:45.010Z,102794.47
2022-10-11T19:41:12.088Z,102794.09
2022-10-11T19:43:38.590Z,102794.53
2022-10-11T19:46:07.626Z,102803.59
2022-10-11T19:48:37.953Z,102792.09
2022-10-11T19:51:09.552Z,102796.91
2022-10-11T19:53:36.359Z,102787.47
2022-10-11T19:56:08.471Z,102784.41
2022-10-11T19:58:34.871Z,102783.59
2022-10-11T20:01:16.032Z,102788.16
2022-10-11T20:03:44.166Z,102788.41
2022-10-11T20:06:11.350Z,102782.88
2022-10-11T20:08:37.888Z,102788.03
2022-10-11T20:11:07.320Z,102778.59
2022-10-11T20:13:35.274Z,102781.47
2022-10-11T20:16:06.733Z,102787.03
2022-10-11T20:18:33.295Z,102793.63
2022-10-11T20:21:03.234Z,102790.56
2022-10-11T20:23:30.404Z,102798.41
2022-10-11T20:26:11.966Z,102801.88
2022-10-11T20:28:39.914Z,102794.91
2022-10-11T20:31:14.772Z,102796.19
2022-10-11T20:33:41.579Z,102789.44
2022-10-11T20:36:23.392Z,102790.06
2022-10-11T20:38:50.822Z,102797.66
2022-10-11T20:41:23.477Z,102800.56
2022-10-11T20:43:52.624Z,102793.59
2022-10-11T20:46:21.742Z,102796.47
2022-10-11T20:48:57.598Z,102793.81
2022-10-11T20:51:27.292Z,102800.56
2022-10-11T20:53:53.652Z,102801.59
2022-10-11T20:56:22.187Z,102799.53
2022-10-11T20:58:53.220Z,102797.91
2022-10-11T21:01:22.620Z,102798.72
2022-10-11T21:03:50.115Z,102787.22
2022-10-11T21:06:16.431Z,102786.81
2022-10-11T21:08:42.805Z,102793.97
2022-10-11T21:11:10.817Z,102789.69
2022-10-11T21:13:37.914Z,102789.69
2022-10-11T21:16:15.486Z,102795.84
2022-10-11T21:18:42.520Z,102789.69
2022-10-11T21:21:11.592Z,102787.81
2022-10-11T21:23:38.363Z,102793.38
2022-10-11T21:26:07.547Z,102789.03
2022-10-11T21:28:33.966Z,102790.84
2022-10-11T21:31:07.615Z,102793.97
2022-10-11T21:33:35.016Z,102796.19
2022-10-11T21:36:12.444Z,102789.19
2022-10-11T21:38:39.287Z,102787.38
2022-10-11T21:41:07.367Z,102791.69
2022-10-11T21:43:35.615Z,102796.81
2022-10-11T21:46:12.827Z,102800.72
2022-10-11T21:48:39.428Z,102805.84
2022-10-11T21:51:06.329Z,102804.44
2022-10-11T21:53:33.106Z,102797.06
2022-10-11T21:56:00.492Z,102798.06
2022-10-11T21:58:27.784Z,102808.94
2022-10-11T22:00:54.906Z,102804.22
2022-10-11T22:03:21.501Z,102795.41
2022-10-11T22:05:48.240Z,102802.56
2022-10-11T22:08:15.274Z,102799.31
2022-10-11T22:10:45.655Z,102797.22
2022-10-11T22:13:12.014Z,102801.75
2022-10-11T22:15:39.315Z,102799.50
2022-10-11T22:18:05.705Z,102795.59
2022-10-11T22:20:33.061Z,102797.66
2022-10-11T22:22:59.710Z,102790.88
2022-10-11T22:25:26.161Z,102786.56
2022-10-11T22:27:52.512Z,102783.50
2022-10-11T22:30:19.086Z,102791.28
2022-10-11T22:32:50.932Z,102791.91
2022-10-11T22:35:17.247Z,102793.78
2022-10-11T22:37:43.887Z,102795.19
2022-10-11T22:40:10.312Z,102789.22
2022-10-11T22:42:36.688Z,102785.75
2022-10-11T22:45:03.663Z,102785.34
2022-10-11T22:47:29.981Z,102789.22
2022-10-11T22:49:56.281Z,102788.81
2022-10-11T22:52:22.606Z,102778.53
2022-10-11T22:54:48.951Z,102785.13
2022-10-11T22:57:15.261Z,102785.13
2022-10-11T22:59:41.574Z,102785.94
2022-10-11T23:02:08.115Z,102779.16
2022-10-11T23:04:34.506Z,102790.03
2022-10-11T23:07:04.815Z,102789.00
2022-10-11T23:09:31.643Z,102778.72
2022-10-11T23:11:58.378Z,102780.78
2022-10-11T23:14:24.764Z,102778.34
2022-10-11T23:16:51.622Z,102779.53
2022-10-11T23:19:18.293Z,102777.09
2022-10-11T23:21:44.815Z,102774.19
2022-10-11T23:24:11.204Z,102772.34
2022-10-11T23:26:37.515Z,102771.72
2022-10-11T23:29:03.966Z,102764.72
2022-10-11T23:31:30.283Z,102765.56
2022-10-11T23:33:56.910Z,102761.88
2022-10-11T23:36:25.268Z,102767.81
2022-10-11T23:38:56.901Z,102767.63
2022-10-11T23:41:25.485Z,102758.78
2022-10-11T23:43:52.112Z,102767.41
2022-10-11T23:46:18.515Z,102760.63
2022-10-11T23:48:45.005Z,102765.72
2022-10-11T23:51:11.527Z,102764.50
2022-10-11T23:53:38.139Z,102763.28
2022-10-11T23:56:05.320Z,102759.75
2022-10-11T23:58:31.713Z,102767.56
